Time;durP1;ratioP1;P1;durP2;ratioP2;P2;SDS_P1;SDS_P2;PMS_P1;PMS_P2;Temp;Humidity;BMP_temperature;BMP_pressure;BME280_temperature;BME280_humidity;BME280_pressure;Samples;Min_cycle;Max_cycle;Signal;HPM_P1;HPM_P2
2023/11/22 00:02:18;;;;;;;15.52;5.05;;;0.00;100.00;;;;;;5065853;28;20061;-75
2023/11/22 00:04:45;;;;;;;14.23;4.63;;;-0.10;100.00;;;;;;5048298;28;20841;-75
2023/11/22 00:07:12;;;;;;;9.00;4.10;;;0.00;100.00;;;;;;5049890;28;20138;-75
2023/11/22 00:09:39;;;;;;;7.43;3.00;;;0.00;100.00;;;;;;5048540;28;20102;-75
2023/11/22 00:12:06;;;;;;;8.70;3.90;;;0.00;100.00;;;;;;5065540;28;20113;-75
2023/11/22 00:14:34;;;;;;;6.60;2.38;;;0.10;100.00;;;;;;5077494;28;21003;-75
2023/11/22 00:17:02;;;;;;;11.30;3.38;;;0.10;100.00;;;;;;5049957;28;20474;-75
2023/11/22 00:19:30;;;;;;;7.90;3.40;;;0.20;100.00;;;;;;5047953;28;20055;-75
2023/11/22 00:21:57;;;;;;;8.63;3.00;;;0.30;100.00;;;;;;5066520;28;20055;-75
2023/11/22 00:24:24;;;;;;;14.45;2.70;;;0.30;100.00;;;;;;5049627;28;20140;-75
2023/11/22 00:26:51;;;;;;;10.15;3.00;;;0.40;100.00;;;;;;5050369;28;20076;-75
2023/11/22 00:29:18;;;;;;;9.15;2.30;;;0.50;100.00;;;;;;5049295;28;20281;-75
2023/11/22 00:31:45;;;;;;;9.05;2.10;;;0.50;100.00;;;;;;5048014;28;20081;-75
2023/11/22 00:34:12;;;;;;;7.50;2.55;;;0.60;100.00;;;;;;5056452;28;20056;-75
2023/11/22 00:36:39;;;;;;;4.97;2.20;;;0.70;100.00;;;;;;5048370;28;20053;-75
2023/11/22 00:39:06;;;;;;;7.28;1.98;;;0.70;100.00;;;;;;5047768;28;20048;-75
2023/11/22 00:41:33;;;;;;;9.68;2.35;;;0.80;100.00;;;;;;5050283;28;20145;-75
2023/11/22 00:44:00;;;;;;;5.07;1.73;;;0.90;100.00;;;;;;5052292;28;20048;-76
2023/11/22 00:46:27;;;;;;;5.20;1.48;;;0.90;100.00;;;;;;5048610;28;20409;-75
2023/11/22 00:48:56;;;;;;;4.70;1.88;;;1.00;100.00;;;;;;5050346;28;20131;-75
2023/11/22 00:51:23;;;;;;;3.80;1.67;;;1.00;100.00;;;;;;5055695;28;20049;-75
2023/11/22 00:53:50;;;;;;;5.03;2.30;;;1.10;100.00;;;;;;5048379;28;20114;-75
2023/11/22 00:56:17;;;;;;;4.13;1.67;;;1.10;100.00;;;;;;5049195;28;20037;-75
2023/11/22 00:58:44;;;;;;;9.38;1.85;;;1.10;100.00;;;;;;5065271;28;20051;-76
2023/11/22 01:01:11;;;;;;;2.97;1.55;;;1.10;100.00;;;;;;5049044;28;20703;-76
2023/11/22 01:03:38;;;;;;;5.38;1.65;;;1.10;100.00;;;;;;5046233;28;20048;-75
2023/11/22 01:06:06;;;;;;;4.97;1.83;;;1.20;100.00;;;;;;5049631;28;20049;-75
2023/11/22 01:08:33;;;;;;;5.05;1.83;;;1.20;100.00;;;;;;5048660;28;20084;-75
2023/11/22 01:11:00;;;;;;;3.58;1.67;;;1.20;100.00;;;;;;5057527;28;20485;-76
2023/11/22 01:13:27;;;;;;;5.63;2.00;;;1.20;100.00;;;;;;5048730;28;20049;-75
2023/11/22 01:15:54;;;;;;;3.17;1.35;;;1.20;100.00;;;;;;5064553;28;20140;-75
2023/11/22 01:18:22;;;;;;;3.00;1.55;;;1.30;100.00;;;;;;5048420;28;20057;-75
2023/11/22 01:20:49;;;;;;;5.78;1.83;;;1.30;100.00;;;;;;5049637;28;20083;-75
2023/11/22 01:23:16;;;;;;;4.45;1.92;;;1.30;100.00;;;;;;5048524;28;20134;-75
2023/11/22 01:25:42;;;;;;;3.33;1.30;;;1.30;100.00;;;;;;5048699;28;20047;-75
2023/11/22 01:28:11;;;;;;;4.32;1.95;;;1.30;100.00;;;;;;5047697;28;20152;-75
2023/11/22 01:30:38;;;;;;;7.90;1.75;;;1.30;100.00;;;;;;5048590;28;20053;-76
2023/11/22 01:33:05;;;;;;;4.72;1.90;;;1.30;100.00;;;;;;5046507;28;20375;-75
2023/11/22 01:35:33;;;;;;;3.28;1.85;;;1.30;100.00;;;;;;5046782;28;20064;-75
2023/11/22 01:38:02;;;;;;;7.25;1.90;;;1.20;100.00;;;;;;5048243;28;20046;-75
2023/11/22 01:40:29;;;;;;;9.75;2.17;;;1.20;100.00;;;;;;5049526;28;20044;-76
2023/11/22 01:42:56;;;;;;;3.00;1.48;;;1.20;100.00;;;;;;5048939;28;21309;-76
2023/11/22 01:45:22;;;;;;;7.25;2.20;;;1.20;100.00;;;;;;5047580;28;20082;-74
2023/11/22 01:47:51;;;;;;;5.43;1.38;;;1.20;100.00;;;;;;5046081;28;20056;-74
2023/11/22 01:50:18;;;;;;;10.82;1.88;;;1.20;100.00;;;;;;5046896;28;20118;-74
2023/11/22 01:52:46;;;;;;;4.20;1.80;;;1.20;100.00;;;;;;5046145;28;20059;-74
2023/11/22 01:55:15;;;;;;;4.00;1.90;;;1.20;100.00;;;;;;5083514;22;20046;-77
2023/11/22 01:57:42;;;;;;;4.35;1.63;;;1.20;100.00;;;;;;5022805;28;20692;-76
2023/11/22 02:00:14;;;;;;;11.27;2.15;;;1.10;100.00;;;;;;5021545;28;20050;-77
2023/11/22 02:02:43;;;;;;;4.03;1.70;;;1.10;100.00;;;;;;5019601;28;20391;-77
2023/11/22 02:05:11;;;;;;;10.75;2.50;;;1.10;100.00;;;;;;5019800;28;20148;-77
2023/11/22 02:07:39;;;;;;;3.60;1.70;;;1.10;100.00;;;;;;5021123;28;20501;-79
2023/11/22 02:10:07;;;;;;;5.60;1.73;;;1.00;100.00;;;;;;5018411;28;20053;-77
2023/11/22 02:12:35;;;;;;;4.40;1.60;;;0.90;100.00;;;;;;5021184;28;20050;-76
2023/11/22 02:15:03;;;;;;;4.57;1.95;;;0.90;100.00;;;;;;5020684;28;20153;-77
2023/11/22 02:17:30;;;;;;;4.85;2.08;;;0.80;100.00;;;;;;5020321;28;20053;-76
2023/11/22 02:19:57;;;;;;;4.45;1.83;;;0.80;100.00;;;;;;5017736;28;20069;-73
2023/11/22 02:22:24;;;;;;;5.53;1.95;;;0.70;100.00;;;;;;5016477;28;20275;-73
2023/11/22 02:24:51;;;;;;;8.02;2.10;;;0.60;100.00;;;;;;5017186;28;20107;-73
2023/11/22 02:27:18;;;;;;;4.32;1.83;;;0.50;100.00;;;;;;5017423;28;20186;-74
2023/11/22 02:29:58;;;;;;;4.03;1.90;;;0.40;100.00;;;;;;5025146;28;20053;-73
2023/11/22 02:32:25;;;;;;;3.40;1.60;;;0.30;100.00;;;;;;5020251;28;20120;-77
2023/11/22 02:34:52;;;;;;;7.43;1.15;;;0.20;100.00;;;;;;5021716;28;21270;-76
2023/11/22 02:37:18;;;;;;;4.03;1.42;;;0.10;100.00;;;;;;5019805;28;20115;-74
2023/11/22 02:40:00;;;;;;;4.32;1.52;;;0.00;100.00;;;;;;5017321;28;20927;-74
2023/11/22 02:42:27;;;;;;;5.30;1.77;;;0.00;100.00;;;;;;5018478;28;20264;-74
2023/11/22 02:44:54;;;;;;;4.03;1.60;;;0.00;100.00;;;;;;5018126;28;20049;-74
2023/11/22 02:47:21;;;;;;;7.50;1.88;;;0.00;100.00;;;;;;5012468;28;20049;-76
2023/11/22 02:49:48;;;;;;;8.48;1.40;;;-0.10;100.00;;;;;;5017056;28;20156;-75
2023/11/22 02:52:16;;;;;;;7.97;1.80;;;-0.10;100.00;;;;;;5016331;28;20053;-76
2023/11/22 02:54:45;;;;;;;6.70;1.63;;;-0.20;100.00;;;;;;5016705;28;20493;-75
2023/11/22 02:57:12;;;;;;;4.72;1.90;;;-0.20;100.00;;;;;;5018123;28;20049;-76
2023/11/22 02:59:44;;;;;;;3.67;1.60;;;-0.30;100.00;;;;;;5016238;28;20754;-75
2023/11/22 03:02:11;;;;;;;3.83;2.10;;;-0.30;100.00;;;;;;5016779;28;20049;-76
2023/11/22 03:04:38;;;;;;;3.63;1.70;;;-0.40;100.00;;;;;;5017419;28;20053;-76
2023/11/22 03:07:08;;;;;;;3.95;1.75;;;-0.40;100.00;;;;;;5019206;28;20037;-78
2023/11/22 03:09:34;;;;;;;5.10;1.88;;;-0.40;100.00;;;;;;5023369;28;20594;-78
2023/11/22 03:12:02;;;;;;;4.18;2.10;;;-0.40;100.00;;;;;;5024268;28;20056;-78
2023/11/22 03:14:29;;;;;;;4.68;1.80;;;-0.40;100.00;;;;;;5024885;28;20119;-78
2023/11/22 03:16:56;;;;;;;8.88;2.47;;;-0.40;100.00;;;;;;5026306;28;20042;-78
2023/11/22 03:19:24;;;;;;;4.88;2.28;;;-0.50;100.00;;;;;;5025553;28;20049;-78
2023/11/22 03:21:50;;;;;;;4.53;1.67;;;-0.50;100.00;;;;;;5025006;28;20493;-77
2023/11/22 03:24:17;;;;;;;4.53;1.60;;;-0.50;100.00;;;;;;5025592;28;20083;-78
2023/11/22 03:26:45;;;;;;;5.75;2.17;;;-0.50;100.00;;;;;;5025585;28;20099;-78
2023/11/22 03:29:16;;;;;;;4.38;1.70;;;-0.60;100.00;;;;;;5023898;28;20047;-78
2023/11/22 03:31:43;;;;;;;3.97;1.50;;;-0.60;100.00;;;;;;5023592;28;20053;-78
2023/11/22 03:34:10;;;;;;;6.13;1.65;;;-0.70;100.00;;;;;;5027090;28;20049;-78
2023/11/22 03:36:37;;;;;;;3.05;1.23;;;-0.70;100.00;;;;;;5024390;28;20053;-77
2023/11/22 03:39:04;;;;;;;8.75;1.60;;;-0.70;100.00;;;;;;5025077;28;20085;-78
2023/11/22 03:41:31;;;;;;;4.28;1.63;;;-0.80;100.00;;;;;;5016385;28;20188;-77
2023/11/22 03:43:57;;;;;;;5.53;2.65;;;-0.80;100.00;;;;;;5011598;28;20050;-78
2023/11/22 03:46:24;;;;;;;6.03;2.70;;;-0.80;100.00;;;;;;5021971;28;20053;-77
2023/11/22 03:48:51;;;;;;;6.85;1.92;;;-0.80;100.00;;;;;;5019745;28;20045;-77
2023/11/22 03:51:18;;;;;;;8.73;2.05;;;-0.90;100.00;;;;;;5025148;28;20104;-78
2023/11/22 03:53:45;;;;;;;10.20;1.60;;;-0.90;100.00;;;;;;5025818;28;20054;-78
2023/11/22 03:56:12;;;;;;;3.97;2.20;;;-0.90;100.00;;;;;;5023193;28;20556;-78
2023/11/22 03:58:40;;;;;;;8.02;1.98;;;-1.00;100.00;;;;;;5022806;28;20069;-77
2023/11/22 04:01:07;;;;;;;5.90;2.47;;;-1.00;100.00;;;;;;5022265;28;20627;-77
2023/11/22 04:03:34;;;;;;;4.70;2.00;;;-1.10;100.00;;;;;;5023665;28;20049;-78
2023/11/22 04:06:01;;;;;;;4.25;1.80;;;-1.10;100.00;;;;;;5023089;28;20049;-77
2023/11/22 04:08:28;;;;;;;5.93;2.20;;;-1.10;100.00;;;;;;5021407;28;20438;-77
2023/11/22 04:10:55;;;;;;;5.75;1.55;;;-1.10;100.00;;;;;;5024448;28;20775;-77
2023/11/22 04:13:24;;;;;;;4.43;2.22;;;-1.20;100.00;;;;;;5025260;28;20095;-77
2023/11/22 04:15:52;;;;;;;8.77;1.92;;;-1.20;100.00;;;;;;5023099;28;20512;-77
2023/11/22 04:18:18;;;;;;;4.38;2.20;;;-1.20;100.00;;;;;;5025243;28;20061;-77
2023/11/22 04:20:47;;;;;;;5.07;2.35;;;-1.20;100.00;;;;;;5024515;28;20052;-77
2023/11/22 04:23:14;;;;;;;6.93;1.92;;;-1.20;100.00;;;;;;5025766;28;20099;-78
2023/11/22 04:25:42;;;;;;;4.22;1.88;;;-1.30;100.00;;;;;;5025021;28;20054;-77
2023/11/22 04:28:09;;;;;;;8.27;2.25;;;-1.30;100.00;;;;;;5024914;28;20060;-78
2023/11/22 04:30:37;;;;;;;5.88;2.50;;;-1.30;100.00;;;;;;5023415;28;20054;-77
2023/11/22 04:33:04;;;;;;;6.22;2.20;;;-1.40;100.00;;;;;;5020185;28;20144;-77
2023/11/22 04:35:36;;;;;;;4.28;2.25;;;-1.40;100.00;;;;;;5021095;28;20053;-77
2023/11/22 04:38:03;;;;;;;3.83;1.60;;;-1.40;100.00;;;;;;5018283;28;20494;-76
2023/11/22 04:40:30;;;;;;;4.63;1.95;;;-1.50;100.00;;;;;;5019028;28;20045;-77
2023/11/22 04:42:57;;;;;;;4.63;1.88;;;-1.50;100.00;;;;;;5025242;23;20050;-74
2023/11/22 04:45:24;;;;;;;3.63;1.55;;;-1.50;100.00;;;;;;5014347;28;20054;-75
2023/11/22 04:47:51;;;;;;;4.30;1.50;;;-1.60;100.00;;;;;;5018864;28;20042;-74
2023/11/22 04:50:18;;;;;;;4.72;2.00;;;-1.60;100.00;;;;;;5004412;28;20046;-75
2023/11/22 04:52:45;;;;;;;5.32;1.83;;;-1.60;100.00;;;;;;5006881;28;20050;-75
2023/11/22 04:55:12;;;;;;;3.97;2.17;;;-1.70;100.00;;;;;;5006889;28;20061;-75
2023/11/22 04:57:39;;;;;;;7.43;2.15;;;-1.70;100.00;;;;;;5001577;28;20512;-75
2023/11/22 05:00:07;;;;;;;5.85;2.83;;;-1.70;100.00;;;;;;5002214;28;20060;-75
2023/11/22 05:02:35;;;;;;;5.80;2.10;;;-1.70;100.00;;;;;;5002410;28;20097;-75
2023/11/22 05:05:02;;;;;;;5.63;2.15;;;-1.70;100.00;;;;;;5003742;28;20145;-75
2023/11/22 05:07:29;;;;;;;4.90;2.05;;;-1.70;100.00;;;;;;5004667;28;20049;-75
2023/11/22 05:09:56;;;;;;;7.18;2.22;;;-1.80;100.00;;;;;;5007355;28;20053;-75
2023/11/22 05:12:23;;;;;;;10.13;2.53;;;-1.80;100.00;;;;;;5007788;28;20692;-78
2023/11/22 05:14:50;;;;;;;7.80;2.70;;;-1.90;100.00;;;;;;5009092;28;20054;-77
2023/11/22 05:17:17;;;;;;;6.82;2.17;;;-1.90;100.00;;;;;;5010258;28;20081;-78
2023/11/22 05:19:44;;;;;;;8.23;2.80;;;-1.90;100.00;;;;;;5007795;28;20566;-78
2023/11/22 05:22:11;;;;;;;4.95;2.30;;;-1.90;100.00;;;;;;5005669;28;20099;-77
2023/11/22 05:24:41;;;;;;;6.35;3.25;;;-1.90;100.00;;;;;;5010387;28;20050;-77
2023/11/22 05:27:09;;;;;;;6.15;2.45;;;-1.90;100.00;;;;;;5004674;28;20482;-77
2023/11/22 05:29:36;;;;;;;6.05;2.22;;;-1.90;100.00;;;;;;5007313;28;20054;-78
2023/11/22 05:32:13;;;;;;;6.93;2.25;;;-1.90;100.00;;;;;;5003237;28;20100;-77
2023/11/22 05:34:40;;;;;;;5.78;2.55;;;-1.90;100.00;;;;;;5008342;28;20050;-76
2023/11/22 05:37:07;;;;;;;6.75;2.60;;;-1.90;100.00;;;;;;5002885;28;20414;-77
2023/11/22 05:39:34;;;;;;;6.32;2.75;;;-1.90;100.00;;;;;;5007827;28;20100;-77
2023/11/22 05:42:01;;;;;;;4.57;1.67;;;-1.90;100.00;;;;;;5008616;28;20402;-77
2023/11/22 05:44:28;;;;;;;7.63;2.75;;;-1.90;100.00;;;;;;5006637;28;20054;-76
2023/11/22 05:46:55;;;;;;;9.20;3.20;;;-2.00;100.00;;;;;;5004497;28;20444;-75
2023/11/22 05:49:21;;;;;;;12.35;3.40;;;-2.00;100.00;;;;;;5004385;28;20155;-74
2023/11/22 05:51:48;;;;;;;12.00;3.75;;;-2.00;100.00;;;;;;5003277;28;20088;-76
2023/11/22 05:54:16;;;;;;;10.45;3.60;;;-2.00;100.00;;;;;;5004513;28;20057;-77
2023/11/22 05:56:43;;;;;;;8.52;3.40;;;-2.00;100.00;;;;;;5003812;28;20141;-79
2023/11/22 05:59:10;;;;;;;7.78;3.28;;;-2.00;100.00;;;;;;5005119;28;20065;-78
2023/11/22 06:01:37;;;;;;;10.82;3.53;;;-2.10;100.00;;;;;;5003222;28;20053;-77
2023/11/22 06:04:04;;;;;;;7.38;2.78;;;-2.10;100.00;;;;;;5002919;28;20088;-77
2023/11/22 06:06:31;;;;;;;8.20;3.42;;;-2.00;100.00;;;;;;5004430;28;20137;-74
2023/11/22 06:08:58;;;;;;;9.80;3.63;;;-2.00;100.00;;;;;;5005314;28;20424;-77
2023/11/22 06:11:25;;;;;;;10.23;3.35;;;-2.10;100.00;;;;;;5007009;28;20487;-76
2023/11/22 06:13:52;;;;;;;15.88;5.35;;;-2.10;100.00;;;;;;5006067;28;20054;-76
2023/11/22 06:16:19;;;;;;;34.75;16.95;;;-2.00;100.00;;;;;;5005546;28;20054;-76
2023/11/22 06:18:46;;;;;;;38.20;16.92;;;-2.00;100.00;;;;;;4999047;28;20060;-76
2023/11/22 06:21:13;;;;;;;48.33;24.20;;;-2.00;100.00;;;;;;4999043;28;20478;-75
2023/11/22 06:23:40;;;;;;;11.68;5.13;;;-2.00;100.00;;;;;;4996256;28;20129;-77
2023/11/22 06:26:07;;;;;;;20.92;9.43;;;-2.00;100.00;;;;;;5002654;28;20050;-78
2023/11/22 06:28:35;;;;;;;14.07;5.00;;;-2.00;100.00;;;;;;5008132;28;20041;-82
2023/11/22 06:31:02;;;;;;;11.88;4.57;;;-2.00;100.00;;;;;;5000314;28;20058;-77
2023/11/22 06:33:29;;;;;;;10.02;4.65;;;-2.00;100.00;;;;;;5006129;28;20081;-77
2023/11/22 06:35:56;;;;;;;9.20;4.35;;;-2.00;100.00;;;;;;5005651;28;20135;-77
2023/11/22 06:38:23;;;;;;;12.43;4.93;;;-2.00;100.00;;;;;;5011913;28;20054;-77
2023/11/22 06:40:51;;;;;;;10.60;4.07;;;-2.00;100.00;;;;;;5007517;28;20041;-77
2023/11/22 06:43:18;;;;;;;9.18;3.60;;;-2.00;100.00;;;;;;5023857;28;20046;-77
2023/11/22 06:45:45;;;;;;;11.85;3.85;;;-2.00;100.00;;;;;;5013652;28;20049;-71
2023/11/22 06:48:11;;;;;;;12.23;4.35;;;-2.00;100.00;;;;;;5012114;28;20049;-72
2023/11/22 06:50:39;;;;;;;11.40;3.90;;;-2.00;100.00;;;;;;5003482;28;20061;-71
2023/11/22 06:53:06;;;;;;;10.73;3.90;;;-2.00;100.00;;;;;;5014247;28;20132;-72
2023/11/22 06:55:33;;;;;;;11.75;3.53;;;-2.00;100.00;;;;;;5012963;28;20566;-72
2023/11/22 06:58:00;;;;;;;7.93;3.45;;;-2.00;100.00;;;;;;5018272;28;20050;-72
2023/11/22 07:00:28;;;;;;;16.88;4.47;;;-1.90;100.00;;;;;;5013293;28;20092;-72
2023/11/22 07:02:56;;;;;;;26.20;4.25;;;-1.90;100.00;;;;;;5017297;28;20052;-72
2023/11/22 07:05:23;;;;;;;7.38;3.40;;;-1.90;100.00;;;;;;5011304;28;20096;-77
2023/11/22 07:07:51;;;;;;;10.65;3.72;;;-1.90;100.00;;;;;;5009167;28;20100;-78
2023/11/22 07:10:20;;;;;;;7.65;3.30;;;-1.90;100.00;;;;;;5002525;28;20463;-78
2023/11/22 07:12:47;;;;;;;8.13;3.58;;;-1.90;100.00;;;;;;5010504;28;20495;-78
2023/11/22 07:15:14;;;;;;;13.38;4.43;;;-1.90;100.00;;;;;;5009522;28;20058;-77
2023/11/22 07:17:41;;;;;;;24.48;6.55;;;-1.80;100.00;;;;;;5007843;28;20057;-74
2023/11/22 07:20:14;;;;;;;17.60;6.68;;;-1.80;100.00;;;;;;5008616;28;20088;-75
2023/11/22 07:22:43;;;;;;;13.57;5.95;;;-1.70;100.00;;;;;;5015934;28;20061;-74
2023/11/22 07:25:17;;;;;;;18.55;5.20;;;-1.70;100.00;;;;;;5010976;28;20092;-75
2023/11/22 07:27:46;;;;;;;14.73;6.07;;;-1.60;100.00;;;;;;5007727;28;20108;-75
2023/11/22 07:30:14;;;;;;;15.00;5.25;;;-1.50;100.00;;;;;;5002722;28;20103;-70
2023/11/22 07:32:41;;;;;;;13.27;5.18;;;-1.40;100.00;;;;;;5005809;28;20570;-71
2023/11/22 07:35:08;;;;;;;12.93;4.97;;;-1.40;100.00;;;;;;5009016;28;20533;-71
2023/11/22 07:37:35;;;;;;;13.20;4.88;;;-1.30;100.00;;;;;;5003657;28;20049;-71
2023/11/22 07:40:03;;;;;;;21.65;5.88;;;-1.30;100.00;;;;;;5000833;28;20049;-71
2023/11/22 07:42:30;;;;;;;21.48;5.57;;;-1.20;100.00;;;;;;5005412;28;20123;-71
2023/11/22 07:44:57;;;;;;;18.65;6.15;;;-1.10;100.00;;;;;;5005439;28;20120;-71
2023/11/22 07:47:24;;;;;;;70.90;7.47;;;-1.10;100.00;;;;;;5002510;28;20057;-71
2023/11/22 07:49:52;;;;;;;216.27;10.50;;;-1.00;100.00;;;;;;5002425;28;20137;-71
2023/11/22 07:52:18;;;;;;;104.13;7.05;;;-0.90;100.00;;;;;;5008709;28;20056;-71
2023/11/22 07:54:45;;;;;;;292.25;12.63;;;-0.80;100.00;;;;;;5005721;28;20143;-71
2023/11/22 07:57:13;;;;;;;122.80;10.25;;;-0.80;100.00;;;;;;5009923;28;20081;-71
2023/11/22 07:59:40;;;;;;;97.78;8.32;;;-0.70;100.00;;;;;;5010239;28;20049;-71
2023/11/22 08:02:11;;;;;;;51.65;5.90;;;-0.60;100.00;;;;;;5009958;28;20057;-71
2023/11/22 08:04:38;;;;;;;13.93;5.38;;;-0.60;100.00;;;;;;4998198;28;20124;-71
2023/11/22 08:07:05;;;;;;;34.65;7.43;;;-0.50;100.00;;;;;;5004600;28;20045;-71
2023/11/22 08:09:32;;;;;;;19.55;6.18;;;-0.50;100.00;;;;;;5002787;28;20450;-71
2023/11/22 08:12:02;;;;;;;22.23;5.65;;;-0.50;100.00;;;;;;5009201;28;20456;-71
2023/11/22 08:14:32;;;;;;;22.75;5.93;;;-0.40;100.00;;;;;;5000484;28;20060;-71
2023/11/22 08:16:59;;;;;;;21.27;7.07;;;-0.40;100.00;;;;;;5009377;28;20115;-71
2023/11/22 08:19:27;;;;;;;24.83;6.55;;;-0.30;100.00;;;;;;5000516;28;20049;-71
2023/11/22 08:21:54;;;;;;;17.75;7.18;;;-0.30;100.00;;;;;;5012533;28;20502;-71
2023/11/22 08:24:21;;;;;;;24.98;8.43;;;-0.20;100.00;;;;;;5007433;28;20494;-71
2023/11/22 08:26:48;;;;;;;23.98;8.02;;;-0.10;100.00;;;;;;5014219;28;20056;-71
2023/11/22 08:29:16;;;;;;;26.27;7.50;;;0.00;100.00;;;;;;5011481;28;20670;-71
2023/11/22 08:31:43;;;;;;;20.98;8.30;;;0.00;100.00;;;;;;4999704;28;20051;-71
2023/11/22 08:34:11;;;;;;;23.58;8.07;;;0.10;100.00;;;;;;5006585;28;20065;-71
2023/11/22 08:36:38;;;;;;;18.83;7.38;;;0.20;100.00;;;;;;5017899;28;20510;-71
2023/11/22 08:39:05;;;;;;;24.63;6.60;;;0.20;100.00;;;;;;5002402;28;20046;-70
2023/11/22 08:41:33;;;;;;;17.23;6.88;;;0.30;100.00;;;;;;5009531;28;20053;-70
2023/11/22 08:44:00;;;;;;;16.98;6.38;;;0.30;100.00;;;;;;5005634;28;20517;-71
2023/11/22 08:46:27;;;;;;;23.92;9.10;;;0.40;100.00;;;;;;5008562;28;20046;-71
2023/11/22 08:48:56;;;;;;;18.58;6.55;;;0.50;100.00;;;;;;5014519;28;20061;-71
2023/11/22 08:51:23;;;;;;;12.55;5.75;;;0.50;100.00;;;;;;5007734;28;20054;-71
2023/11/22 08:53:50;;;;;;;17.35;5.57;;;0.60;100.00;;;;;;5009453;28;20057;-71
2023/11/22 08:56:17;;;;;;;16.33;5.07;;;0.60;100.00;;;;;;5016014;28;20135;-71
2023/11/22 08:58:44;;;;;;;14.10;5.40;;;0.70;100.00;;;;;;5010612;28;20058;-71
2023/11/22 09:01:14;;;;;;;21.17;6.53;;;0.70;100.00;;;;;;5009273;28;20046;-71
2023/11/22 09:03:42;;;;;;;20.20;6.40;;;0.80;100.00;;;;;;5017462;28;20045;-71
2023/11/22 09:06:09;;;;;;;15.63;6.40;;;0.90;100.00;;;;;;5007837;28;20134;-72
2023/11/22 09:08:36;;;;;;;25.67;7.97;;;0.90;100.00;;;;;;5006689;28;20081;-72
2023/11/22 09:11:06;;;;;;;17.83;7.05;;;1.00;100.00;;;;;;5003223;28;20484;-72
2023/11/22 09:13:34;;;;;;;20.67;6.85;;;1.10;100.00;;;;;;5005475;28;20501;-72
2023/11/22 09:16:04;;;;;;;16.67;7.30;;;1.20;100.00;;;;;;5002720;28;20050;-72
2023/11/22 09:18:32;;;;;;;9.27;4.90;;;1.30;100.00;;;;;;5010692;28;20378;-73
2023/11/22 09:20:59;;;;;;;11.95;5.50;;;1.30;100.00;;;;;;5007204;28;20056;-73
2023/11/22 09:23:27;;;;;;;8.88;4.10;;;1.40;100.00;;;;;;5013638;28;20511;-73
2023/11/22 09:25:54;;;;;;;17.20;5.03;;;1.40;100.00;;;;;;5005352;28;20053;-73
2023/11/22 09:28:21;;;;;;;8.15;3.83;;;1.50;100.00;;;;;;5016650;28;20494;-73
2023/11/22 09:30:49;;;;;;;11.45;4.97;;;1.60;100.00;;;;;;5005210;28;20057;-73
2023/11/22 09:33:16;;;;;;;9.30;4.47;;;1.70;100.00;;;;;;5004938;28;20080;-73
2023/11/22 09:35:45;;;;;;;9.82;4.45;;;1.70;100.00;;;;;;5010004;28;20526;-73
2023/11/22 09:38:13;;;;;;;11.70;4.20;;;1.70;100.00;;;;;;5007070;28;20053;-73
2023/11/22 09:40:45;;;;;;;10.95;4.55;;;1.70;100.00;;;;;;5006458;28;20516;-73
2023/11/22 09:43:16;;;;;;;8.68;4.10;;;1.80;100.00;;;;;;5010795;28;20140;-73
2023/11/22 09:45:44;;;;;;;8.65;3.63;;;1.80;100.00;;;;;;5010284;28;20072;-73
2023/11/22 09:48:16;;;;;;;9.55;4.28;;;1.90;100.00;;;;;;5008640;28;20085;-73
2023/11/22 09:51:11;;;;;;;10.35;3.97;;;2.00;100.00;;;;;;5003701;28;20061;-73
2023/11/22 09:53:43;;;;;;;12.50;4.90;;;2.10;100.00;;;;;;4998902;28;20100;-73
2023/11/22 09:56:13;;;;;;;10.68;4.70;;;2.10;100.00;;;;;;5015030;28;20052;-73
2023/11/22 09:58:44;;;;;;;8.63;3.05;;;2.10;100.00;;;;;;5006515;28;20050;-73
2023/11/22 10:01:13;;;;;;;8.57;3.80;;;2.20;100.00;;;;;;5004503;28;20485;-73
2023/11/22 10:03:40;;;;;;;7.47;3.60;;;2.30;100.00;;;;;;5008218;28;20053;-73
2023/11/22 10:06:08;;;;;;;10.38;4.45;;;2.30;100.00;;;;;;5003419;28;20046;-73
2023/11/22 10:08:38;;;;;;;10.65;3.85;;;2.30;100.00;;;;;;5000401;28;20089;-73
2023/11/22 10:11:06;;;;;;;16.13;3.83;;;2.30;100.00;;;;;;5006953;28;20042;-73
2023/11/22 10:13:34;;;;;;;10.05;3.42;;;2.30;100.00;;;;;;5009518;28;20857;-73
2023/11/22 10:16:11;;;;;;;13.38;4.82;;;2.40;100.00;;;;;;5002791;28;20090;-73
2023/11/22 10:18:46;;;;;;;8.98;4.13;;;2.50;100.00;;;;;;5000578;28;20049;-73
2023/11/22 10:21:25;;;;;;;11.52;4.22;;;2.60;100.00;;;;;;5006772;28;20852;-73
2023/11/22 10:23:58;;;;;;;12.52;3.85;;;2.60;100.00;;;;;;5003224;28;20807;-74
2023/11/22 10:26:28;;;;;;;11.10;4.18;;;2.70;100.00;;;;;;5009266;28;20670;-73
2023/11/22 10:28:56;;;;;;;11.10;3.97;;;2.70;100.00;;;;;;5001534;28;20054;-73
2023/11/22 10:31:24;;;;;;;9.52;3.88;;;2.70;100.00;;;;;;5004415;28;20050;-73
2023/11/22 10:33:53;;;;;;;14.13;4.60;;;2.80;100.00;;;;;;5005274;28;20054;-74
2023/11/22 10:36:22;;;;;;;15.05;5.00;;;2.80;100.00;;;;;;5013306;28;20050;-73
2023/11/22 10:38:50;;;;;;;19.80;5.30;;;2.90;100.00;;;;;;5008875;28;20057;-74
2023/11/22 10:41:21;;;;;;;14.90;6.47;;;3.00;100.00;;;;;;5008094;28;20406;-73
2023/11/22 10:43:50;;;;;;;6.40;2.60;;;3.00;100.00;;;;;;5007653;28;20065;-73
2023/11/22 10:46:17;;;;;;;7.57;3.25;;;3.00;100.00;;;;;;5005392;28;20133;-73
2023/11/22 10:48:44;;;;;;;7.95;2.72;;;2.90;100.00;;;;;;5013234;28;20188;-73
2023/11/22 10:51:14;;;;;;;12.77;4.13;;;2.90;100.00;;;;;;5001469;28;20053;-73
2023/11/22 10:53:48;;;;;;;16.42;6.43;;;2.90;100.00;;;;;;5005757;28;20491;-73
2023/11/22 10:56:19;;;;;;;14.33;7.57;;;3.10;100.00;;;;;;5011639;28;20703;-73
2023/11/22 10:58:51;;;;;;;7.55;3.42;;;3.20;100.00;;;;;;5002967;28;20058;-73
2023/11/22 11:01:29;;;;;;;17.05;8.05;;;3.30;100.00;;;;;;5009681;28;20056;-72
2023/11/22 11:04:06;;;;;;;9.48;4.90;;;3.40;100.00;;;;;;5008458;28;20046;-73
2023/11/22 11:06:35;;;;;;;15.00;6.18;;;3.60;100.00;;;;;;5005698;28;20053;-73
2023/11/22 11:09:08;;;;;;;8.23;3.95;;;3.70;100.00;;;;;;5007694;28;20057;-73
2023/11/22 11:11:38;;;;;;;11.23;4.10;;;3.70;100.00;;;;;;5003701;28;20046;-73
2023/11/22 11:14:09;;;;;;;16.23;5.88;;;3.80;100.00;;;;;;5014135;28;20088;-72
2023/11/22 11:16:38;;;;;;;7.88;4.15;;;3.70;100.00;;;;;;5004439;28;20049;-73
2023/11/22 11:19:07;;;;;;;9.85;4.00;;;3.70;100.00;;;;;;5005780;28;20046;-72
2023/11/22 11:21:34;;;;;;;8.80;5.28;;;3.80;100.00;;;;;;4999664;28;20702;-73
2023/11/22 11:24:04;;;;;;;5.60;2.55;;;3.90;100.00;;;;;;5006610;28;20045;-73
2023/11/22 11:26:37;;;;;;;14.68;3.22;;;3.90;100.00;;;;;;5002250;28;20470;-72
2023/11/22 11:29:06;;;;;;;5.10;3.08;;;4.10;100.00;;;;;;5006374;28;20397;-73
2023/11/22 11:31:36;;;;;;;8.00;3.40;;;4.10;100.00;;;;;;5011836;28;20054;-72
2023/11/22 11:34:06;;;;;;;8.55;3.03;;;4.20;100.00;;;;;;5004772;28;20437;-73
2023/11/22 11:36:33;;;;;;;5.80;2.55;;;4.30;100.00;;;;;;5015482;28;20458;-73
2023/11/22 11:39:09;;;;;;;3.80;2.00;;;4.30;100.00;;;;;;5003861;28;20475;-73
2023/11/22 11:41:39;;;;;;;4.75;2.28;;;4.20;96.10;;;;;;5005663;28;20090;-73
2023/11/22 11:44:10;;;;;;;3.08;1.60;;;3.90;95.50;;;;;;5010731;28;20081;-73
2023/11/22 11:46:38;;;;;;;9.32;2.10;;;3.90;95.90;;;;;;5004935;28;20133;-73
2023/11/22 11:49:12;;;;;;;6.80;2.35;;;3.70;92.10;;;;;;5005108;28;20050;-73
2023/11/22 11:51:39;;;;;;;5.43;2.90;;;3.60;96.40;;;;;;5004937;28;20054;-73
2023/11/22 11:54:07;;;;;;;8.35;2.63;;;3.60;100.00;;;;;;5004750;28;20574;-73
2023/11/22 11:56:34;;;;;;;5.90;2.88;;;3.60;100.00;;;;;;5009997;28;20074;-73
2023/11/22 11:59:03;;;;;;;7.82;2.70;;;3.70;100.00;;;;;;5010959;28;20049;-73
2023/11/22 12:01:32;;;;;;;5.13;3.15;;;3.70;100.00;;;;;;5008193;28;20110;-73
2023/11/22 12:04:03;;;;;;;7.40;2.35;;;3.60;98.20;;;;;;5008916;28;20046;-73
2023/11/22 12:06:33;;;;;;;6.82;2.15;;;3.60;94.50;;;;;;5009062;28;20042;-73
2023/11/22 12:09:00;;;;;;;3.33;1.98;;;3.50;99.30;;;;;;5018123;28;20134;-73
2023/11/22 12:11:29;;;;;;;3.78;1.88;;;3.50;97.40;;;;;;5007316;28;20526;-72
2023/11/22 12:13:58;;;;;;;4.18;2.42;;;3.50;99.60;;;;;;5024311;28;20060;-73
2023/11/22 12:16:26;;;;;;;3.95;1.73;;;3.50;100.00;;;;;;5006126;28;20631;-73
2023/11/22 12:18:55;;;;;;;5.72;1.75;;;3.50;100.00;;;;;;4998855;28;20093;-73
2023/11/22 12:21:23;;;;;;;2.38;1.52;;;3.50;100.00;;;;;;5003731;28;20057;-73
2023/11/22 12:23:50;;;;;;;3.28;1.55;;;3.40;98.80;;;;;;5000837;28;20056;-72
2023/11/22 12:26:20;;;;;;;4.57;1.80;;;3.40;97.70;;;;;;5013604;28;20050;-72
2023/11/22 12:28:49;;;;;;;2.55;1.30;;;3.40;100.00;;;;;;5006661;28;20112;-72
2023/11/22 12:31:34;;;;;;;2.63;1.42;;;3.30;97.20;;;;;;5002844;28;20068;-73
2023/11/22 12:34:03;;;;;;;2.08;1.30;;;3.30;95.10;;;;;;5003583;28;20062;-73
2023/11/22 12:36:30;;;;;;;2.90;1.45;;;3.20;94.80;;;;;;5016752;28;20507;-73
2023/11/22 12:39:00;;;;;;;4.30;1.65;;;3.10;93.00;;;;;;5008383;28;20060;-73
2023/11/22 12:41:29;;;;;;;6.20;2.17;;;3.00;91.50;;;;;;5006870;28;20418;-73
2023/11/22 12:44:07;;;;;;;4.57;1.40;;;3.00;93.50;;;;;;5008194;28;20080;-73